sensor_id;sensor_type;location;lat;lon;timestamp;P1;durP1;ratioP1;P2;durP2;ratioP2
71108;SDS011;59614;51.012;-1.648;2023-03-14T00:01:53;30.95;;;4.32;;
71108;SDS011;59614;51.012;-1.648;2023-03-14T00:04:18;35.28;;;3.88;;
71108;SDS011;59614;51.012;-1.648;2023-03-14T00:06:44;28.95;;;3.97;;
71108;SDS011;59614;51.012;-1.648;2023-03-14T00:09:11;23.25;;;4.40;;
71108;SDS011;59614;51.012;-1.648;2023-03-14T00:11:37;24.67;;;3.55;;
71108;SDS011;59614;51.012;-1.648;2023-03-14T00:14:03;20.75;;;3.33;;
71108;SDS011;59614;51.012;-1.648;2023-03-14T00:16:28;21.67;;;2.58;;
71108;SDS011;59614;51.012;-1.648;2023-03-14T00:18:58;9.32;;;1.70;;
71108;SDS011;59614;51.012;-1.648;2023-03-14T00:21:24;3.45;;;1.08;;
71108;SDS011;59614;51.012;-1.648;2023-03-14T00:23:50;4.13;;;1.08;;
71108;SDS011;59614;51.012;-1.648;2023-03-14T00:26:17;2.15;;;0.77;;
71108;SDS011;59614;51.012;-1.648;2023-03-14T00:28:44;0.40;;;0.40;;
71108;SDS011;59614;51.012;-1.648;2023-03-14T00:31:12;0.88;;;0.70;;
71108;SDS011;59614;51.012;-1.648;2023-03-14T00:33:39;1.92;;;0.55;;
71108;SDS011;59614;51.012;-1.648;2023-03-14T00:36:05;0.60;;;0.43;;
71108;SDS011;59614;51.012;-1.648;2023-03-14T00:38:36;0.25;;;0.25;;
71108;SDS011;59614;51.012;-1.648;2023-03-14T00:41:06;1.20;;;0.35;;
71108;SDS011;59614;51.012;-1.648;2023-03-14T00:43:36;0.38;;;0.22;;
71108;SDS011;59614;51.012;-1.648;2023-03-14T00:46:01;0.52;;;0.45;;
71108;SDS011;59614;51.012;-1.648;2023-03-14T00:48:27;3.70;;;0.98;;
71108;SDS011;59614;51.012;-1.648;2023-03-14T00:50:53;1.05;;;0.80;;
71108;SDS011;59614;51.012;-1.648;2023-03-14T00:53:18;1.30;;;0.75;;
71108;SDS011;59614;51.012;-1.648;2023-03-14T00:55:44;1.67;;;0.60;;
71108;SDS011;59614;51.012;-1.648;2023-03-14T00:58:10;1.08;;;0.75;;
71108;SDS011;59614;51.012;-1.648;2023-03-14T01:00:37;2.83;;;1.10;;
71108;SDS011;59614;51.012;-1.648;2023-03-14T01:03:03;5.15;;;1.15;;
71108;SDS011;59614;51.012;-1.648;2023-03-14T01:05:29;3.30;;;1.20;;
71108;SDS011;59614;51.012;-1.648;2023-03-14T01:07:55;3.78;;;1.70;;
71108;SDS011;59614;51.012;-1.648;2023-03-14T01:10:20;4.70;;;1.25;;
71108;SDS011;59614;51.012;-1.648;2023-03-14T01:12:46;5.63;;;1.30;;
71108;SDS011;59614;51.012;-1.648;2023-03-14T01:15:11;5.30;;;1.88;;
71108;SDS011;59614;51.012;-1.648;2023-03-14T01:17:37;4.70;;;1.30;;
71108;SDS011;59614;51.012;-1.648;2023-03-14T01:20:06;5.13;;;1.52;;
71108;SDS011;59614;51.012;-1.648;2023-03-14T01:22:36;5.50;;;2.53;;
71108;SDS011;59614;51.012;-1.648;2023-03-14T01:25:04;7.22;;;1.42;;
71108;SDS011;59614;51.012;-1.648;2023-03-14T01:27:31;10.57;;;1.90;;
71108;SDS011;59614;51.012;-1.648;2023-03-14T01:29:57;7.53;;;1.90;;
71108;SDS011;59614;51.012;-1.648;2023-03-14T01:32:23;6.35;;;1.70;;
71108;SDS011;59614;51.012;-1.648;2023-03-14T01:34:49;7.80;;;1.65;;
71108;SDS011;59614;51.012;-1.648;2023-03-14T01:37:14;8.15;;;1.80;;
71108;SDS011;59614;51.012;-1.648;2023-03-14T01:39:40;5.05;;;1.52;;
71108;SDS011;59614;51.012;-1.648;2023-03-14T01:42:05;7.20;;;2.10;;
71108;SDS011;59614;51.012;-1.648;2023-03-14T01:47:18;8.98;;;1.65;;
71108;SDS011;59614;51.012;-1.648;2023-03-14T01:49:44;12.82;;;2.03;;
71108;SDS011;59614;51.012;-1.648;2023-03-14T01:52:15;9.00;;;1.90;;
71108;SDS011;59614;51.012;-1.648;2023-03-14T01:54:46;12.50;;;2.22;;
71108;SDS011;59614;51.012;-1.648;2023-03-14T01:57:20;6.00;;;2.00;;
71108;SDS011;59614;51.012;-1.648;2023-03-14T02:00:05;4.35;;;1.52;;
71108;SDS011;59614;51.012;-1.648;2023-03-14T02:02:37;10.50;;;1.90;;
71108;SDS011;59614;51.012;-1.648;2023-03-14T02:05:04;4.82;;;1.77;;
71108;SDS011;59614;51.012;-1.648;2023-03-14T02:07:32;10.95;;;2.03;;
71108;SDS011;59614;51.012;-1.648;2023-03-14T02:10:02;8.70;;;1.83;;
71108;SDS011;59614;51.012;-1.648;2023-03-14T02:12:28;9.13;;;2.03;;
71108;SDS011;59614;51.012;-1.648;2023-03-14T02:14:55;10.27;;;1.63;;
71108;SDS011;59614;51.012;-1.648;2023-03-14T02:17:20;10.18;;;2.30;;
71108;SDS011;59614;51.012;-1.648;2023-03-14T02:22:23;5.57;;;1.80;;
71108;SDS011;59614;51.012;-1.648;2023-03-14T02:25:08;8.73;;;2.33;;
71108;SDS011;59614;51.012;-1.648;2023-03-14T02:27:55;8.48;;;1.80;;
71108;SDS011;59614;51.012;-1.648;2023-03-14T02:30:21;6.85;;;2.00;;
71108;SDS011;59614;51.012;-1.648;2023-03-14T02:32:54;7.72;;;2.20;;
71108;SDS011;59614;51.012;-1.648;2023-03-14T02:35:24;7.72;;;2.15;;
71108;SDS011;59614;51.012;-1.648;2023-03-14T02:37:57;10.30;;;2.33;;
71108;SDS011;59614;51.012;-1.648;2023-03-14T02:40:25;9.95;;;2.05;;
71108;SDS011;59614;51.012;-1.648;2023-03-14T02:42:50;10.60;;;2.00;;
71108;SDS011;59614;51.012;-1.648;2023-03-14T02:50:39;9.80;;;1.95;;
71108;SDS011;59614;51.012;-1.648;2023-03-14T02:53:04;9.75;;;2.40;;
71108;SDS011;59614;51.012;-1.648;2023-03-14T02:55:30;14.60;;;2.33;;
71108;SDS011;59614;51.012;-1.648;2023-03-14T02:57:56;12.60;;;2.53;;
71108;SDS011;59614;51.012;-1.648;2023-03-14T03:00:21;10.70;;;2.05;;
71108;SDS011;59614;51.012;-1.648;2023-03-14T03:02:46;11.38;;;2.13;;
71108;SDS011;59614;51.012;-1.648;2023-03-14T03:05:12;7.47;;;1.88;;
71108;SDS011;59614;51.012;-1.648;2023-03-14T03:07:37;10.50;;;2.10;;
71108;SDS011;59614;51.012;-1.648;2023-03-14T03:10:03;11.30;;;2.08;;
71108;SDS011;59614;51.012;-1.648;2023-03-14T03:12:29;11.38;;;1.80;;
71108;SDS011;59614;51.012;-1.648;2023-03-14T03:14:54;7.57;;;1.77;;
71108;SDS011;59614;51.012;-1.648;2023-03-14T03:17:20;10.43;;;2.03;;
71108;SDS011;59614;51.012;-1.648;2023-03-14T03:19:45;9.23;;;2.05;;
71108;SDS011;59614;51.012;-1.648;2023-03-14T03:22:10;12.73;;;1.83;;
71108;SDS011;59614;51.012;-1.648;2023-03-14T03:24:36;11.65;;;2.42;;
71108;SDS011;59614;51.012;-1.648;2023-03-14T03:27:01;9.35;;;1.67;;
71108;SDS011;59614;51.012;-1.648;2023-03-14T03:29:27;9.35;;;2.35;;
71108;SDS011;59614;51.012;-1.648;2023-03-14T03:31:52;11.18;;;2.42;;
71108;SDS011;59614;51.012;-1.648;2023-03-14T03:34:18;13.68;;;2.13;;
71108;SDS011;59614;51.012;-1.648;2023-03-14T03:36:43;14.57;;;2.65;;
71108;SDS011;59614;51.012;-1.648;2023-03-14T03:39:09;12.63;;;2.25;;
71108;SDS011;59614;51.012;-1.648;2023-03-14T03:41:34;9.18;;;2.05;;
71108;SDS011;59614;51.012;-1.648;2023-03-14T03:44:00;11.90;;;2.25;;
71108;SDS011;59614;51.012;-1.648;2023-03-14T03:46:25;10.07;;;2.80;;
71108;SDS011;59614;51.012;-1.648;2023-03-14T03:48:58;12.35;;;2.40;;
71108;SDS011;59614;51.012;-1.648;2023-03-14T03:51:25;10.27;;;2.00;;
71108;SDS011;59614;51.012;-1.648;2023-03-14T03:53:50;14.40;;;2.20;;
71108;SDS011;59614;51.012;-1.648;2023-03-14T03:56:16;13.98;;;2.65;;
71108;SDS011;59614;51.012;-1.648;2023-03-14T03:58:42;11.60;;;2.30;;
71108;SDS011;59614;51.012;-1.648;2023-03-14T04:01:08;14.35;;;2.33;;
71108;SDS011;59614;51.012;-1.648;2023-03-14T04:03:35;12.43;;;1.92;;
71108;SDS011;59614;51.012;-1.648;2023-03-14T04:06:04;18.08;;;1.98;;
71108;SDS011;59614;51.012;-1.648;2023-03-14T04:08:31;8.30;;;1.80;;
71108;SDS011;59614;51.012;-1.648;2023-03-14T04:10:57;10.98;;;2.30;;
71108;SDS011;59614;51.012;-1.648;2023-03-14T04:13:24;16.45;;;2.55;;
71108;SDS011;59614;51.012;-1.648;2023-03-14T04:15:50;11.02;;;2.25;;
71108;SDS011;59614;51.012;-1.648;2023-03-14T04:18:16;11.82;;;2.90;;
71108;SDS011;59614;51.012;-1.648;2023-03-14T04:20:42;9.82;;;2.00;;
71108;SDS011;59614;51.012;-1.648;2023-03-14T04:23:07;8.85;;;2.35;;
71108;SDS011;59614;51.012;-1.648;2023-03-14T04:25:34;10.27;;;2.83;;
71108;SDS011;59614;51.012;-1.648;2023-03-14T04:27:59;14.45;;;2.28;;
71108;SDS011;59614;51.012;-1.648;2023-03-14T04:30:24;14.70;;;2.63;;
71108;SDS011;59614;51.012;-1.648;2023-03-14T04:32:50;9.68;;;2.15;;
71108;SDS011;59614;51.012;-1.648;2023-03-14T04:35:15;12.93;;;2.40;;
71108;SDS011;59614;51.012;-1.648;2023-03-14T04:37:41;18.25;;;2.60;;
71108;SDS011;59614;51.012;-1.648;2023-03-14T04:40:08;12.07;;;2.55;;
71108;SDS011;59614;51.012;-1.648;2023-03-14T04:42:34;12.75;;;2.20;;
71108;SDS011;59614;51.012;-1.648;2023-03-14T04:45:00;19.77;;;2.60;;
71108;SDS011;59614;51.012;-1.648;2023-03-14T04:47:26;11.43;;;2.42;;
71108;SDS011;59614;51.012;-1.648;2023-03-14T04:49:51;9.57;;;2.30;;
71108;SDS011;59614;51.012;-1.648;2023-03-14T04:52:17;17.63;;;3.15;;
71108;SDS011;59614;51.012;-1.648;2023-03-14T04:54:42;20.23;;;3.05;;
71108;SDS011;59614;51.012;-1.648;2023-03-14T04:57:08;16.85;;;2.78;;
71108;SDS011;59614;51.012;-1.648;2023-03-14T04:59:34;9.80;;;2.40;;
71108;SDS011;59614;51.012;-1.648;2023-03-14T05:01:59;7.28;;;2.30;;
71108;SDS011;59614;51.012;-1.648;2023-03-14T05:04:24;16.35;;;2.80;;
71108;SDS011;59614;51.012;-1.648;2023-03-14T05:06:50;11.32;;;2.58;;
71108;SDS011;59614;51.012;-1.648;2023-03-14T05:09:15;20.77;;;2.88;;
71108;SDS011;59614;51.012;-1.648;2023-03-14T05:11:41;10.93;;;2.33;;
71108;SDS011;59614;51.012;-1.648;2023-03-14T05:14:06;14.50;;;2.55;;
71108;SDS011;59614;51.012;-1.648;2023-03-14T05:16:32;13.18;;;2.28;;
71108;SDS011;59614;51.012;-1.648;2023-03-14T05:18:57;7.20;;;2.03;;
71108;SDS011;59614;51.012;-1.648;2023-03-14T05:21:23;17.35;;;3.17;;
71108;SDS011;59614;51.012;-1.648;2023-03-14T05:23:48;17.75;;;2.67;;
71108;SDS011;59614;51.012;-1.648;2023-03-14T05:26:13;10.95;;;2.20;;
71108;SDS011;59614;51.012;-1.648;2023-03-14T05:28:41;14.82;;;2.65;;
71108;SDS011;59614;51.012;-1.648;2023-03-14T05:31:07;17.38;;;2.95;;
71108;SDS011;59614;51.012;-1.648;2023-03-14T05:33:33;11.82;;;2.42;;
71108;SDS011;59614;51.012;-1.648;2023-03-14T05:35:59;14.18;;;2.47;;
71108;SDS011;59614;51.012;-1.648;2023-03-14T05:38:24;10.50;;;2.40;;
71108;SDS011;59614;51.012;-1.648;2023-03-14T05:40:50;19.17;;;3.05;;
71108;SDS011;59614;51.012;-1.648;2023-03-14T05:43:15;14.57;;;2.67;;
71108;SDS011;59614;51.012;-1.648;2023-03-14T05:45:41;11.70;;;2.38;;
71108;SDS011;59614;51.012;-1.648;2023-03-14T05:48:07;10.73;;;2.45;;
71108;SDS011;59614;51.012;-1.648;2023-03-14T05:50:33;12.27;;;2.35;;
71108;SDS011;59614;51.012;-1.648;2023-03-14T05:52:58;9.70;;;2.42;;
71108;SDS011;59614;51.012;-1.648;2023-03-14T05:55:24;11.68;;;2.70;;
71108;SDS011;59614;51.012;-1.648;2023-03-14T05:57:49;11.55;;;2.40;;
71108;SDS011;59614;51.012;-1.648;2023-03-14T06:00:15;14.20;;;2.78;;
71108;SDS011;59614;51.012;-1.648;2023-03-14T06:02:41;10.27;;;2.97;;
71108;SDS011;59614;51.012;-1.648;2023-03-14T06:05:06;17.48;;;4.00;;
71108;SDS011;59614;51.012;-1.648;2023-03-14T06:07:32;11.73;;;2.95;;
71108;SDS011;59614;51.012;-1.648;2023-03-14T06:09:58;15.30;;;2.90;;
71108;SDS011;59614;51.012;-1.648;2023-03-14T06:12:23;7.90;;;2.38;;
71108;SDS011;59614;51.012;-1.648;2023-03-14T06:14:49;16.10;;;2.45;;
71108;SDS011;59614;51.012;-1.648;2023-03-14T06:17:15;11.77;;;2.60;;
71108;SDS011;59614;51.012;-1.648;2023-03-14T06:19:40;10.63;;;3.22;;
71108;SDS011;59614;51.012;-1.648;2023-03-14T06:22:05;21.98;;;3.50;;
71108;SDS011;59614;51.012;-1.648;2023-03-14T06:24:31;11.63;;;2.40;;
71108;SDS011;59614;51.012;-1.648;2023-03-14T06:26:56;14.27;;;3.15;;
71108;SDS011;59614;51.012;-1.648;2023-03-14T06:29:22;14.35;;;2.92;;
71108;SDS011;59614;51.012;-1.648;2023-03-14T06:31:47;13.20;;;2.83;;
71108;SDS011;59614;51.012;-1.648;2023-03-14T06:34:12;8.27;;;2.78;;
71108;SDS011;59614;51.012;-1.648;2023-03-14T06:36:38;14.10;;;2.50;;
71108;SDS011;59614;51.012;-1.648;2023-03-14T06:39:04;14.65;;;2.97;;
71108;SDS011;59614;51.012;-1.648;2023-03-14T06:41:29;7.90;;;2.50;;
71108;SDS011;59614;51.012;-1.648;2023-03-14T06:43:55;15.07;;;2.92;;
71108;SDS011;59614;51.012;-1.648;2023-03-14T06:46:21;12.57;;;2.83;;
71108;SDS011;59614;51.012;-1.648;2023-03-14T06:48:47;8.63;;;2.35;;
71108;SDS011;59614;51.012;-1.648;2023-03-14T06:51:13;13.20;;;2.88;;
71108;SDS011;59614;51.012;-1.648;2023-03-14T06:53:38;9.15;;;2.25;;
71108;SDS011;59614;51.012;-1.648;2023-03-14T06:56:04;11.27;;;2.35;;
71108;SDS011;59614;51.012;-1.648;2023-03-14T06:58:29;13.52;;;2.42;;
71108;SDS011;59614;51.012;-1.648;2023-03-14T07:00:55;10.45;;;3.25;;
71108;SDS011;59614;51.012;-1.648;2023-03-14T07:03:22;9.80;;;1.92;;
71108;SDS011;59614;51.012;-1.648;2023-03-14T07:05:47;10.35;;;2.35;;
71108;SDS011;59614;51.012;-1.648;2023-03-14T07:08:13;11.52;;;2.30;;
71108;SDS011;59614;51.012;-1.648;2023-03-14T07:10:38;10.45;;;1.95;;
71108;SDS011;59614;51.012;-1.648;2023-03-14T07:13:04;10.85;;;2.38;;
71108;SDS011;59614;51.012;-1.648;2023-03-14T07:15:29;9.95;;;2.58;;
71108;SDS011;59614;51.012;-1.648;2023-03-14T07:17:55;15.35;;;1.95;;
71108;SDS011;59614;51.012;-1.648;2023-03-14T07:20:20;10.85;;;2.40;;
71108;SDS011;59614;51.012;-1.648;2023-03-14T07:22:47;17.65;;;2.70;;
71108;SDS011;59614;51.012;-1.648;2023-03-14T07:25:14;10.30;;;2.72;;
71108;SDS011;59614;51.012;-1.648;2023-03-14T07:27:40;13.45;;;3.05;;
71108;SDS011;59614;51.012;-1.648;2023-03-14T07:30:07;11.32;;;2.95;;
71108;SDS011;59614;51.012;-1.648;2023-03-14T07:32:33;15.25;;;2.45;;
71108;SDS011;59614;51.012;-1.648;2023-03-14T07:34:59;12.88;;;2.22;;
71108;SDS011;59614;51.012;-1.648;2023-03-14T07:37:24;17.92;;;2.35;;
71108;SDS011;59614;51.012;-1.648;2023-03-14T07:39:49;11.55;;;2.85;;
71108;SDS011;59614;51.012;-1.648;2023-03-14T07:42:15;11.32;;;2.33;;
71108;SDS011;59614;51.012;-1.648;2023-03-14T07:44:40;9.95;;;2.03;;
71108;SDS011;59614;51.012;-1.648;2023-03-14T07:47:06;13.90;;;2.60;;
71108;SDS011;59614;51.012;-1.648;2023-03-14T07:49:31;16.92;;;2.80;;
71108;SDS011;59614;51.012;-1.648;2023-03-14T07:51:57;12.95;;;2.30;;
71108;SDS011;59614;51.012;-1.648;2023-03-14T07:54:23;14.30;;;2.45;;
71108;SDS011;59614;51.012;-1.648;2023-03-14T07:56:49;11.23;;;2.65;;
71108;SDS011;59614;51.012;-1.648;2023-03-14T07:59:15;12.27;;;2.50;;
71108;SDS011;59614;51.012;-1.648;2023-03-14T08:01:40;12.50;;;2.42;;
71108;SDS011;59614;51.012;-1.648;2023-03-14T08:04:06;13.13;;;2.55;;
71108;SDS011;59614;51.012;-1.648;2023-03-14T08:06:31;17.75;;;2.58;;
71108;SDS011;59614;51.012;-1.648;2023-03-14T08:08:57;15.80;;;2.72;;
71108;SDS011;59614;51.012;-1.648;2023-03-14T08:11:22;16.17;;;2.92;;
71108;SDS011;59614;51.012;-1.648;2023-03-14T08:13:48;12.80;;;2.28;;
71108;SDS011;59614;51.012;-1.648;2023-03-14T08:16:18;11.80;;;2.35;;
71108;SDS011;59614;51.012;-1.648;2023-03-14T08:18:44;22.17;;;3.40;;
71108;SDS011;59614;51.012;-1.648;2023-03-14T08:21:10;17.77;;;3.13;;
71108;SDS011;59614;51.012;-1.648;2023-03-14T08:23:36;11.43;;;2.40;;
71108;SDS011;59614;51.012;-1.648;2023-03-14T08:26:01;11.98;;;2.10;;
71108;SDS011;59614;51.012;-1.648;2023-03-14T08:28:27;8.73;;;1.95;;
71108;SDS011;59614;51.012;-1.648;2023-03-14T08:30:56;10.77;;;2.28;;
71108;SDS011;59614;51.012;-1.648;2023-03-14T08:33:22;14.02;;;2.13;;
71108;SDS011;59614;51.012;-1.648;2023-03-14T08:35:51;10.68;;;2.50;;
71108;SDS011;59614;51.012;-1.648;2023-03-14T08:38:20;8.13;;;2.00;;
71108;SDS011;59614;51.012;-1.648;2023-03-14T08:40:45;10.70;;;2.67;;
71108;SDS011;59614;51.012;-1.648;2023-03-14T08:43:11;9.07;;;2.00;;
71108;SDS011;59614;51.012;-1.648;2023-03-14T08:45:37;10.73;;;2.38;;
71108;SDS011;59614;51.012;-1.648;2023-03-14T08:48:02;7.38;;;2.10;;
71108;SDS011;59614;51.012;-1.648;2023-03-14T08:50:28;8.93;;;2.08;;
71108;SDS011;59614;51.012;-1.648;2023-03-14T08:52:53;6.40;;;1.90;;
71108;SDS011;59614;51.012;-1.648;2023-03-14T08:55:19;8.07;;;1.75;;
71108;SDS011;59614;51.012;-1.648;2023-03-14T08:57:45;6.70;;;1.40;;
71108;SDS011;59614;51.012;-1.648;2023-03-14T09:00:11;5.43;;;1.60;;
71108;SDS011;59614;51.012;-1.648;2023-03-14T09:02:40;4.32;;;1.40;;
71108;SDS011;59614;51.012;-1.648;2023-03-14T09:05:08;7.63;;;2.20;;
71108;SDS011;59614;51.012;-1.648;2023-03-14T09:07:35;8.23;;;1.88;;
71108;SDS011;59614;51.012;-1.648;2023-03-14T09:10:00;7.25;;;2.53;;
71108;SDS011;59614;51.012;-1.648;2023-03-14T09:12:26;8.32;;;1.70;;
71108;SDS011;59614;51.012;-1.648;2023-03-14T09:14:51;5.65;;;1.50;;
71108;SDS011;59614;51.012;-1.648;2023-03-14T09:17:17;4.18;;;1.55;;
71108;SDS011;59614;51.012;-1.648;2023-03-14T09:19:42;9.57;;;2.13;;
71108;SDS011;59614;51.012;-1.648;2023-03-14T09:22:08;3.20;;;1.30;;
71108;SDS011;59614;51.012;-1.648;2023-03-14T09:24:33;8.32;;;1.40;;
71108;SDS011;59614;51.012;-1.648;2023-03-14T09:26:59;4.35;;;1.42;;
71108;SDS011;59614;51.012;-1.648;2023-03-14T09:29:24;3.97;;;1.50;;
71108;SDS011;59614;51.012;-1.648;2023-03-14T09:31:50;5.85;;;1.55;;
71108;SDS011;59614;51.012;-1.648;2023-03-14T09:34:15;4.28;;;1.40;;
71108;SDS011;59614;51.012;-1.648;2023-03-14T09:36:41;4.85;;;1.67;;
71108;SDS011;59614;51.012;-1.648;2023-03-14T09:39:09;6.97;;;1.83;;
71108;SDS011;59614;51.012;-1.648;2023-03-14T09:41:36;5.03;;;1.42;;
71108;SDS011;59614;51.012;-1.648;2023-03-14T09:44:27;4.20;;;1.42;;
71108;SDS011;59614;51.012;-1.648;2023-03-14T09:46:57;5.05;;;1.38;;
71108;SDS011;59614;51.012;-1.648;2023-03-14T09:49:30;4.97;;;1.70;;
71108;SDS011;59614;51.012;-1.648;2023-03-14T09:52:00;6.63;;;1.80;;
71108;SDS011;59614;51.012;-1.648;2023-03-14T09:54:31;4.97;;;1.48;;
71108;SDS011;59614;51.012;-1.648;2023-03-14T09:56:58;4.75;;;1.58;;
71108;SDS011;59614;51.012;-1.648;2023-03-14T09:59:24;2.83;;;1.13;;
71108;SDS011;59614;51.012;-1.648;2023-03-14T10:01:51;4.45;;;1.40;;
71108;SDS011;59614;51.012;-1.648;2023-03-14T10:04:18;1.65;;;0.90;;
71108;SDS011;59614;51.012;-1.648;2023-03-14T10:06:48;2.42;;;1.25;;
71108;SDS011;59614;51.012;-1.648;2023-03-14T10:09:17;4.50;;;1.20;;
71108;SDS011;59614;51.012;-1.648;2023-03-14T10:11:51;1.67;;;0.88;;
71108;SDS011;59614;51.012;-1.648;2023-03-14T10:14:28;4.57;;;1.58;;
71108;SDS011;59614;51.012;-1.648;2023-03-14T10:17:04;2.80;;;1.20;;
71108;SDS011;59614;51.012;-1.648;2023-03-14T10:19:32;3.22;;;1.30;;
71108;SDS011;59614;51.012;-1.648;2023-03-14T10:21:57;3.33;;;0.90;;
71108;SDS011;59614;51.012;-1.648;2023-03-14T10:24:29;1.73;;;0.98;;
71108;SDS011;59614;51.012;-1.648;2023-03-14T10:27:00;1.95;;;1.23;;
71108;SDS011;59614;51.012;-1.648;2023-03-14T10:29:32;1.92;;;1.02;;
71108;SDS011;59614;51.012;-1.648;2023-03-14T10:32:06;1.83;;;1.00;;
71108;SDS011;59614;51.012;-1.648;2023-03-14T10:34:36;3.33;;;1.27;;
71108;SDS011;59614;51.012;-1.648;2023-03-14T10:39:48;1.13;;;0.90;;
71108;SDS011;59614;51.012;-1.648;2023-03-14T10:42:19;1.35;;;0.77;;
71108;SDS011;59614;51.012;-1.648;2023-03-14T10:44:49;1.15;;;0.80;;
71108;SDS011;59614;51.012;-1.648;2023-03-14T10:47:21;1.55;;;0.90;;
71108;SDS011;59614;51.012;-1.648;2023-03-14T10:49:48;2.20;;;0.68;;
71108;SDS011;59614;51.012;-1.648;2023-03-14T10:52:17;2.58;;;1.02;;
71108;SDS011;59614;51.012;-1.648;2023-03-14T10:54:55;3.40;;;1.00;;
71108;SDS011;59614;51.012;-1.648;2023-03-14T10:57:23;2.47;;;0.95;;
71108;SDS011;59614;51.012;-1.648;2023-03-14T10:59:49;2.60;;;1.02;;
71108;SDS011;59614;51.012;-1.648;2023-03-14T11:07:36;4.43;;;1.30;;
71108;SDS011;59614;51.012;-1.648;2023-03-14T11:10:11;3.60;;;1.42;;
71108;SDS011;59614;51.012;-1.648;2023-03-14T11:13:00;6.07;;;1.50;;
71108;SDS011;59614;51.012;-1.648;2023-03-14T11:25:57;3.40;;;1.45;;
71108;SDS011;59614;51.012;-1.648;2023-03-14T11:28:38;5.03;;;1.42;;
71108;SDS011;59614;51.012;-1.648;2023-03-14T11:39:20;4.88;;;1.45;;
71108;SDS011;59614;51.012;-1.648;2023-03-14T11:41:47;2.67;;;1.30;;
71108;SDS011;59614;51.012;-1.648;2023-03-14T11:46:59;1.58;;;0.90;;
71108;SDS011;59614;51.012;-1.648;2023-03-14T11:52:16;3.50;;;0.93;;
71108;SDS011;59614;51.012;-1.648;2023-03-14T11:57:28;2.13;;;0.95;;
71108;SDS011;59614;51.012;-1.648;2023-03-14T12:02:56;2.33;;;0.90;;
71108;SDS011;59614;51.012;-1.648;2023-03-14T12:11:10;2.33;;;0.90;;
71108;SDS011;59614;51.012;-1.648;2023-03-14T12:13:39;9.82;;;1.17;;
71108;SDS011;59614;51.012;-1.648;2023-03-14T12:16:07;1.42;;;0.80;;
71108;SDS011;59614;51.012;-1.648;2023-03-14T12:18:49;2.25;;;1.05;;
71108;SDS011;59614;51.012;-1.648;2023-03-14T12:21:15;1.80;;;1.00;;
71108;SDS011;59614;51.012;-1.648;2023-03-14T12:23:43;2.47;;;1.27;;
71108;SDS011;59614;51.012;-1.648;2023-03-14T12:26:20;2.47;;;1.15;;
71108;SDS011;59614;51.012;-1.648;2023-03-14T12:28:51;1.00;;;0.82;;
71108;SDS011;59614;51.012;-1.648;2023-03-14T12:31:36;3.20;;;1.20;;
71108;SDS011;59614;51.012;-1.648;2023-03-14T12:36:51;3.08;;;1.05;;
71108;SDS011;59614;51.012;-1.648;2023-03-14T12:40:26;2.55;;;1.27;;
71108;SDS011;59614;51.012;-1.648;2023-03-14T12:50:34;1.67;;;1.10;;
71108;SDS011;59614;51.012;-1.648;2023-03-14T12:55:57;2.47;;;1.13;;
71108;SDS011;59614;51.012;-1.648;2023-03-14T12:58:44;3.00;;;1.40;;
71108;SDS011;59614;51.012;-1.648;2023-03-14T13:01:21;2.42;;;1.10;;
71108;SDS011;59614;51.012;-1.648;2023-03-14T13:03:50;3.67;;;1.20;;
71108;SDS011;59614;51.012;-1.648;2023-03-14T13:12:14;2.08;;;1.10;;
71108;SDS011;59614;51.012;-1.648;2023-03-14T13:14:43;5.15;;;1.25;;
71108;SDS011;59614;51.012;-1.648;2023-03-14T13:17:12;1.33;;;1.08;;
71108;SDS011;59614;51.012;-1.648;2023-03-14T13:19:39;2.80;;;1.30;;
71108;SDS011;59614;51.012;-1.648;2023-03-14T13:22:06;2.10;;;1.20;;
71108;SDS011;59614;51.012;-1.648;2023-03-14T13:24:41;2.70;;;1.10;;
71108;SDS011;59614;51.012;-1.648;2023-03-14T13:27:08;2.80;;;1.25;;
71108;SDS011;59614;51.012;-1.648;2023-03-14T13:29:43;4.63;;;1.60;;
71108;SDS011;59614;51.012;-1.648;2023-03-14T13:32:27;2.65;;;1.40;;
71108;SDS011;59614;51.012;-1.648;2023-03-14T13:34:59;1.58;;;1.10;;
71108;SDS011;59614;51.012;-1.648;2023-03-14T13:37:25;1.98;;;1.30;;
71108;SDS011;59614;51.012;-1.648;2023-03-14T13:39:55;2.08;;;1.15;;
71108;SDS011;59614;51.012;-1.648;2023-03-14T13:42:26;6.80;;;1.83;;
71108;SDS011;59614;51.012;-1.648;2023-03-14T13:44:54;2.35;;;1.30;;
71108;SDS011;59614;51.012;-1.648;2023-03-14T13:47:22;2.47;;;1.33;;
71108;SDS011;59614;51.012;-1.648;2023-03-14T13:49:49;3.25;;;1.40;;
71108;SDS011;59614;51.012;-1.648;2023-03-14T13:55:01;1.52;;;1.08;;
71108;SDS011;59614;51.012;-1.648;2023-03-14T13:57:42;1.07;;;0.97;;
71108;SDS011;59614;51.012;-1.648;2023-03-14T14:00:19;2.05;;;1.15;;
71108;SDS011;59614;51.012;-1.648;2023-03-14T14:02:51;2.25;;;1.10;;
71108;SDS011;59614;51.012;-1.648;2023-03-14T14:05:19;1.88;;;1.15;;
71108;SDS011;59614;51.012;-1.648;2023-03-14T14:07:45;1.67;;;0.98;;
71108;SDS011;59614;51.012;-1.648;2023-03-14T14:10:13;2.63;;;1.05;;
71108;SDS011;59614;51.012;-1.648;2023-03-14T14:12:42;5.05;;;1.70;;
71108;SDS011;59614;51.012;-1.648;2023-03-14T14:15:12;3.35;;;1.30;;
71108;SDS011;59614;51.012;-1.648;2023-03-14T14:17:44;5.03;;;1.42;;
71108;SDS011;59614;51.012;-1.648;2023-03-14T14:20:35;1.40;;;0.98;;
71108;SDS011;59614;51.012;-1.648;2023-03-14T14:23:03;2.85;;;1.15;;
71108;SDS011;59614;51.012;-1.648;2023-03-14T14:25:30;4.05;;;1.88;;
71108;SDS011;59614;51.012;-1.648;2023-03-14T14:27:56;1.02;;;0.90;;
71108;SDS011;59614;51.012;-1.648;2023-03-14T14:33:10;3.13;;;1.40;;
71108;SDS011;59614;51.012;-1.648;2023-03-14T14:35:41;4.03;;;0.90;;
71108;SDS011;59614;51.012;-1.648;2023-03-14T14:38:16;2.15;;;0.95;;
71108;SDS011;59614;51.012;-1.648;2023-03-14T14:43:11;1.73;;;0.90;;
71108;SDS011;59614;51.012;-1.648;2023-03-14T14:45:42;2.05;;;1.08;;
71108;SDS011;59614;51.012;-1.648;2023-03-14T14:48:12;2.33;;;1.02;;
71108;SDS011;59614;51.012;-1.648;2023-03-14T14:50:39;3.05;;;1.50;;
71108;SDS011;59614;51.012;-1.648;2023-03-14T14:53:34;2.80;;;1.30;;
71108;SDS011;59614;51.012;-1.648;2023-03-14T14:56:18;4.07;;;1.55;;
71108;SDS011;59614;51.012;-1.648;2023-03-14T14:58:50;4.63;;;1.25;;
71108;SDS011;59614;51.012;-1.648;2023-03-14T15:01:24;2.05;;;1.40;;
71108;SDS011;59614;51.012;-1.648;2023-03-14T15:03:52;4.45;;;1.52;;
71108;SDS011;59614;51.012;-1.648;2023-03-14T15:06:18;2.20;;;1.40;;
71108;SDS011;59614;51.012;-1.648;2023-03-14T15:08:45;4.55;;;1.50;;
71108;SDS011;59614;51.012;-1.648;2023-03-14T15:11:16;3.42;;;1.45;;
71108;SDS011;59614;51.012;-1.648;2023-03-14T15:13:43;2.38;;;1.10;;
71108;SDS011;59614;51.012;-1.648;2023-03-14T15:16:12;3.92;;;1.23;;
71108;SDS011;59614;51.012;-1.648;2023-03-14T15:18:40;5.50;;;1.42;;
71108;SDS011;59614;51.012;-1.648;2023-03-14T15:21:05;2.28;;;0.90;;
71108;SDS011;59614;51.012;-1.648;2023-03-14T15:23:31;3.35;;;1.17;;
71108;SDS011;59614;51.012;-1.648;2023-03-14T15:25:56;4.35;;;1.35;;
71108;SDS011;59614;51.012;-1.648;2023-03-14T15:28:23;3.33;;;1.30;;
71108;SDS011;59614;51.012;-1.648;2023-03-14T15:30:51;2.38;;;1.52;;
71108;SDS011;59614;51.012;-1.648;2023-03-14T15:33:23;3.83;;;2.38;;
71108;SDS011;59614;51.012;-1.648;2023-03-14T15:35:50;3.05;;;1.73;;
71108;SDS011;59614;51.012;-1.648;2023-03-14T15:38:16;4.32;;;2.05;;
71108;SDS011;59614;51.012;-1.648;2023-03-14T15:40:48;6.22;;;2.10;;
71108;SDS011;59614;51.012;-1.648;2023-03-14T15:43:14;6.20;;;2.15;;
71108;SDS011;59614;51.012;-1.648;2023-03-14T15:45:40;10.85;;;2.35;;
71108;SDS011;59614;51.012;-1.648;2023-03-14T15:48:08;8.93;;;2.85;;
71108;SDS011;59614;51.012;-1.648;2023-03-14T15:50:40;7.05;;;2.60;;
71108;SDS011;59614;51.012;-1.648;2023-03-14T15:53:05;17.25;;;4.32;;
71108;SDS011;59614;51.012;-1.648;2023-03-14T15:55:31;16.27;;;4.18;;